createdAt,value
2017-01-29T00:00:15.708Z,1009.56
2017-01-29T00:01:15.688Z,1009.55
2017-01-29T00:02:15.675Z,1009.54
2017-01-29T00:03:15.649Z,1009.56
2017-01-29T00:04:15.631Z,1009.55
2017-01-29T00:05:15.615Z,1009.6
2017-01-29T00:06:15.594Z,1009.59
2017-01-29T00:07:15.575Z,1009.54
2017-01-29T00:08:15.555Z,1009.56
2017-01-29T00:09:15.539Z,1009.59
2017-01-29T00:10:15.518Z,1009.59
2017-01-29T00:11:15.603Z,1009.61
2017-01-29T00:12:15.485Z,1009.6
2017-01-29T00:13:15.466Z,1009.67
2017-01-29T00:14:15.445Z,1009.63
2017-01-29T00:15:15.424Z,1009.65
2017-01-29T00:16:15.406Z,1009.63
2017-01-29T00:17:15.386Z,1009.64
2017-01-29T00:18:15.366Z,1009.64
2017-01-29T00:19:15.348Z,1009.63
2017-01-29T00:20:15.331Z,1009.58
2017-01-29T00:21:15.309Z,1009.6
2017-01-29T00:22:15.292Z,1009.6
2017-01-29T00:23:15.275Z,1009.58
2017-01-29T00:24:15.255Z,1009.61
2017-01-29T00:25:15.234Z,1009.62
2017-01-29T00:26:15.214Z,1009.62
2017-01-29T00:27:15.199Z,1009.63
2017-01-29T00:28:15.176Z,1009.6
2017-01-29T00:29:15.157Z,1009.58
2017-01-29T00:30:15.139Z,1009.59
2017-01-29T00:31:15.122Z,1009.57
2017-01-29T00:32:15.100Z,1009.59
2017-01-29T00:33:15.088Z,1009.59
2017-01-29T00:34:15.063Z,1009.57
2017-01-29T00:35:15.044Z,1009.65
2017-01-29T00:36:15.023Z,1009.65
2017-01-29T00:37:15.004Z,1009.66
2017-01-29T00:38:14.986Z,1009.71
2017-01-29T00:39:14.966Z,1009.65
2017-01-29T00:40:14.947Z,1009.71
2017-01-29T00:41:14.928Z,1009.68
2017-01-29T00:42:14.910Z,1009.66
2017-01-29T00:43:14.890Z,1009.7
2017-01-29T00:44:14.872Z,1009.73
2017-01-29T00:45:14.852Z,1009.71
2017-01-29T00:46:14.833Z,1009.68
2017-01-29T00:47:14.813Z,1009.68
2017-01-29T00:48:14.846Z,1009.68
2017-01-29T00:49:14.778Z,1009.72
2017-01-29T00:50:14.756Z,1009.73
2017-01-29T00:51:14.786Z,1009.73
2017-01-29T00:52:14.717Z,1009.7
2017-01-29T00:53:14.700Z,1009.72
2017-01-29T00:54:14.681Z,1009.74
2017-01-29T00:55:14.660Z,1009.81
2017-01-29T00:56:14.640Z,1009.81
2017-01-29T00:57:14.625Z,1009.8
2017-01-29T00:58:14.607Z,1009.8
2017-01-29T00:59:14.585Z,1009.77
2017-01-29T01:00:14.567Z,1009.78
2017-01-29T01:01:14.546Z,1009.82
2017-01-29T01:02:14.525Z,1009.79
2017-01-29T01:03:14.513Z,1009.76
2017-01-29T01:04:14.490Z,1009.75
2017-01-29T01:05:14.468Z,1009.76
2017-01-29T01:06:14.449Z,1009.79
2017-01-29T01:07:14.436Z,1009.76
2017-01-29T01:08:14.415Z,1009.73
2017-01-29T01:09:14.392Z,1009.77
2017-01-29T01:10:14.375Z,1009.71
2017-01-29T01:11:14.357Z,1009.68
2017-01-29T01:12:14.333Z,1009.74
2017-01-29T01:13:14.319Z,1009.75
2017-01-29T01:14:14.297Z,1009.78
2017-01-29T01:15:14.276Z,1009.77
2017-01-29T01:16:14.260Z,1009.73
2017-01-29T01:17:14.238Z,1009.81
2017-01-29T01:18:14.221Z,1009.82
2017-01-29T01:19:14.207Z,1009.83
2017-01-29T01:20:14.180Z,1009.79
2017-01-29T01:21:14.166Z,1009.83
2017-01-29T01:22:14.143Z,1009.81
2017-01-29T01:23:14.127Z,1009.85
2017-01-29T01:24:14.106Z,1009.79
2017-01-29T01:25:14.087Z,1009.76
2017-01-29T01:26:14.070Z,1009.74
2017-01-29T01:27:14.047Z,1009.72
2017-01-29T01:28:14.028Z,1009.73
2017-01-29T01:29:14.010Z,1009.7
2017-01-29T01:30:13.990Z,1009.73
2017-01-29T01:31:13.971Z,1009.73
2017-01-29T01:32:13.953Z,1009.71
2017-01-29T01:34:13.915Z,1009.75
2017-01-29T01:35:13.894Z,1009.68
2017-01-29T01:36:13.876Z,1009.6
2017-01-29T01:37:13.856Z,1009.59
2017-01-29T01:38:13.838Z,1009.6
2017-01-29T01:39:13.819Z,1009.61
2017-01-29T01:40:13.805Z,1009.56
2017-01-29T01:41:13.784Z,1009.59
2017-01-29T01:42:13.761Z,1009.63
2017-01-29T01:43:13.742Z,1009.61
2017-01-29T01:44:13.727Z,1009.6
2017-01-29T01:45:13.705Z,1009.65
2017-01-29T01:46:13.685Z,1009.64
2017-01-29T01:47:13.666Z,1009.6
2017-01-29T01:48:13.653Z,1009.56
2017-01-29T01:49:13.628Z,1009.62
2017-01-29T01:50:13.612Z,1009.69
2017-01-29T01:51:13.593Z,1009.65
2017-01-29T01:52:13.575Z,1009.7
2017-01-29T01:53:13.557Z,1009.73
2017-01-29T01:54:13.537Z,1009.75
2017-01-29T01:55:13.517Z,1009.8
2017-01-29T01:56:13.497Z,1009.79
2017-01-29T01:57:13.477Z,1009.73
2017-01-29T01:58:13.460Z,1009.77
2017-01-29T01:59:13.442Z,1009.74
2017-01-29T02:00:13.421Z,1009.77
2017-01-29T02:01:13.402Z,1009.72
2017-01-29T02:02:13.384Z,1009.77
2017-01-29T02:03:13.363Z,1009.8
2017-01-29T02:04:13.346Z,1009.77
2017-01-29T02:05:13.327Z,1009.76
2017-01-29T02:06:13.309Z,1009.67
2017-01-29T02:07:13.289Z,1009.66
2017-01-29T02:08:13.269Z,1009.77
2017-01-29T02:09:13.251Z,1009.75
2017-01-29T02:10:13.234Z,1009.78
2017-01-29T02:11:13.214Z,1009.78
2017-01-29T02:12:13.197Z,1009.78
2017-01-29T02:13:13.187Z,1009.78
2017-01-29T02:14:13.159Z,1009.71
2017-01-29T02:15:13.148Z,1009.73
2017-01-29T02:16:13.124Z,1009.72
2017-01-29T02:17:13.116Z,1009.74
2017-01-29T02:18:13.081Z,1009.73
2017-01-29T02:19:13.067Z,1009.72
2017-01-29T02:20:13.052Z,1009.79
2017-01-29T02:21:13.027Z,1009.72
2017-01-29T02:22:13.009Z,1009.67
2017-01-29T02:23:12.988Z,1009.65
2017-01-29T02:24:12.970Z,1009.68
2017-01-29T02:25:12.951Z,1009.72
2017-01-29T02:26:12.931Z,1009.67
2017-01-29T02:27:12.913Z,1009.7
2017-01-29T02:28:12.909Z,1009.63
2017-01-29T02:29:12.877Z,1009.66
2017-01-29T02:30:12.856Z,1009.67
2017-01-29T02:31:12.839Z,1009.69
2017-01-29T02:32:12.826Z,1009.71
2017-01-29T02:33:12.799Z,1009.78
2017-01-29T02:34:12.782Z,1009.8
2017-01-29T02:35:12.762Z,1009.76
2017-01-29T02:36:12.743Z,1009.74
2017-01-29T02:37:12.723Z,1009.71
2017-01-29T02:38:12.703Z,1009.7
2017-01-29T02:39:12.687Z,1009.82
2017-01-29T02:40:12.669Z,1009.75
2017-01-29T02:41:12.700Z,1009.79
2017-01-29T02:42:12.629Z,1009.83
2017-01-29T02:43:12.613Z,1009.78
2017-01-29T02:44:12.590Z,1009.83
2017-01-29T02:45:12.572Z,1009.75
2017-01-29T02:46:12.555Z,1009.7
2017-01-29T02:47:12.534Z,1009.63
2017-01-29T02:48:12.513Z,1009.6
2017-01-29T02:49:12.497Z,1009.66
2017-01-29T02:50:12.478Z,1009.67
2017-01-29T02:51:12.457Z,1009.73
2017-01-29T02:52:12.441Z,1009.69
2017-01-29T02:53:12.469Z,1009.75
2017-01-29T02:54:12.403Z,1009.7
2017-01-29T02:55:12.381Z,1009.69
2017-01-29T02:56:12.363Z,1009.71
2017-01-29T02:57:12.345Z,1009.75
2017-01-29T02:58:12.328Z,1009.73
2017-01-29T02:59:12.307Z,1009.78
2017-01-29T03:00:12.290Z,1009.76
2017-01-29T03:01:12.270Z,1009.74
2017-01-29T03:02:12.251Z,1009.71
2017-01-29T03:03:12.231Z,1009.73
2017-01-29T03:04:12.212Z,1009.7
2017-01-29T03:05:12.198Z,1009.72
2017-01-29T03:06:12.176Z,1009.75
2017-01-29T03:07:12.156Z,1009.76
2017-01-29T03:08:12.138Z,1009.72
2017-01-29T03:09:12.118Z,1009.76
2017-01-29T03:10:12.103Z,1009.75
2017-01-29T03:11:12.081Z,1009.78
2017-01-29T03:12:12.065Z,1009.77
2017-01-29T03:13:12.043Z,1009.86
2017-01-29T03:14:12.024Z,1009.77
2017-01-29T03:15:12.057Z,1009.79
2017-01-29T03:16:11.988Z,1009.78
2017-01-29T03:17:11.970Z,1009.75
2017-01-29T03:18:11.951Z,1009.76
2017-01-29T03:19:11.931Z,1009.77
2017-01-29T03:20:11.910Z,1009.76
2017-01-29T03:21:11.894Z,1009.76
2017-01-29T03:22:11.875Z,1009.78
2017-01-29T03:23:11.856Z,1009.78
2017-01-29T03:24:11.836Z,1009.86
2017-01-29T03:25:11.816Z,1009.92
2017-01-29T03:26:11.801Z,1009.97
2017-01-29T03:27:11.782Z,1010
2017-01-29T03:28:11.761Z,1009.99
2017-01-29T03:29:11.740Z,1010.01
2017-01-29T03:30:11.725Z,1010
2017-01-29T03:31:11.703Z,1009.99
2017-01-29T03:32:11.681Z,1010.03
2017-01-29T03:33:11.667Z,1009.99
2017-01-29T03:34:11.648Z,1010.08
2017-01-29T03:35:11.705Z,1010.05
2017-01-29T03:36:11.658Z,1010.06
2017-01-29T03:37:11.588Z,1010.03
2017-01-29T03:38:11.570Z,1010.01
2017-01-29T03:39:11.550Z,1010.02
2017-01-29T03:40:11.530Z,1010.02
2017-01-29T03:41:11.513Z,1010.03
2017-01-29T03:42:11.492Z,1010.02
2017-01-29T03:43:11.473Z,1010.03
2017-01-29T03:44:11.458Z,1009.99
2017-01-29T03:45:11.437Z,1010.02
2017-01-29T03:46:11.418Z,1010.04
2017-01-29T03:47:11.398Z,1010.03
2017-01-29T03:48:11.380Z,1010
2017-01-29T03:49:11.358Z,1010.05
2017-01-29T03:50:11.340Z,1010.01
2017-01-29T03:51:11.320Z,1010.03
2017-01-29T03:52:11.302Z,1010.04
2017-01-29T03:53:11.282Z,1010.03
2017-01-29T03:54:11.263Z,1010.04
2017-01-29T03:55:11.246Z,1010.04
2017-01-29T03:56:11.225Z,1010.08
2017-01-29T03:57:11.206Z,1010.05
2017-01-29T03:58:11.186Z,1010.06
2017-01-29T03:59:11.172Z,1010.13
2017-01-29T04:00:11.147Z,1010.16
2017-01-29T04:01:11.132Z,1010.14
2017-01-29T04:02:11.313Z,1010.18
2017-01-29T04:03:11.092Z,1010.16
2017-01-29T04:04:11.074Z,1010.17
2017-01-29T04:05:11.054Z,1010.13
2017-01-29T04:06:11.034Z,1010.09
2017-01-29T04:07:11.014Z,1010.11
2017-01-29T04:08:10.994Z,1010.09
2017-01-29T04:09:10.976Z,1010.1
2017-01-29T04:10:10.957Z,1010.1
2017-01-29T04:11:10.937Z,1010.07
2017-01-29T04:12:10.919Z,1010.11
2017-01-29T04:13:10.901Z,1010.11
2017-01-29T04:14:10.883Z,1010.06
2017-01-29T04:15:10.861Z,1010.06
2017-01-29T04:16:10.844Z,1010.1
2017-01-29T04:17:10.824Z,1010.06
2017-01-29T04:18:10.804Z,1010.1
2017-01-29T04:19:10.785Z,1010.07
2017-01-29T04:20:10.767Z,1010.08
2017-01-29T04:21:10.747Z,1010.09
2017-01-29T04:22:10.727Z,1010.08
2017-01-29T04:23:10.709Z,1010.06
2017-01-29T04:24:10.692Z,1010.07
2017-01-29T04:25:10.671Z,1010.09
2017-01-29T04:26:10.655Z,1010.04
2017-01-29T04:27:10.632Z,1010.02
2017-01-29T04:28:10.614Z,1010.07
2017-01-29T04:29:10.597Z,1010.03
2017-01-29T04:30:10.575Z,1010.01
2017-01-29T04:31:10.558Z,1010.03
2017-01-29T04:32:10.540Z,1010
2017-01-29T04:33:10.519Z,1009.95
2017-01-29T04:34:10.501Z,1009.95
2017-01-29T04:35:10.482Z,1009.94
2017-01-29T04:36:10.462Z,1009.93
2017-01-29T04:37:10.443Z,1009.94
2017-01-29T04:38:10.424Z,1009.95
2017-01-29T04:39:10.403Z,1009.98
2017-01-29T04:40:10.392Z,1009.98
2017-01-29T04:41:10.367Z,1009.91
2017-01-29T04:42:10.347Z,1009.94
2017-01-29T04:43:10.329Z,1009.86
2017-01-29T04:44:10.312Z,1009.92
2017-01-29T04:45:10.290Z,1009.89
2017-01-29T04:46:10.270Z,1009.93
2017-01-29T04:47:10.254Z,1009.89
2017-01-29T04:48:10.234Z,1009.91
2017-01-29T04:49:10.214Z,1009.88
2017-01-29T04:50:10.195Z,1009.87
2017-01-29T04:51:10.173Z,1009.83
2017-01-29T04:52:10.158Z,1009.79
2017-01-29T04:53:10.138Z,1009.82
2017-01-29T04:54:10.117Z,1009.84
2017-01-29T04:55:10.100Z,1009.84
2017-01-29T04:56:10.082Z,1009.89
2017-01-29T04:57:10.060Z,1009.84
2017-01-29T04:58:10.041Z,1009.87
2017-01-29T04:59:10.020Z,1009.88
2017-01-29T05:00:10.004Z,1009.84
2017-01-29T05:01:09.985Z,1009.84
2017-01-29T05:02:09.963Z,1009.84
2017-01-29T05:03:09.943Z,1009.82
2017-01-29T05:04:09.929Z,1009.84
2017-01-29T05:05:09.907Z,1009.87
2017-01-29T05:06:09.886Z,1009.93
2017-01-29T05:07:09.867Z,1009.93
2017-01-29T05:08:09.849Z,1009.94
2017-01-29T05:09:09.831Z,1009.98
2017-01-29T05:10:09.809Z,1009.97
2017-01-29T05:11:09.790Z,1010
2017-01-29T05:12:09.772Z,1010.02
2017-01-29T05:13:09.751Z,1009.99
2017-01-29T05:14:09.735Z,1009.99
2017-01-29T05:15:09.715Z,1009.96
2017-01-29T05:16:09.697Z,1009.96
2017-01-29T05:17:09.678Z,1009.94
2017-01-29T05:18:09.656Z,1009.94
2017-01-29T05:19:09.639Z,1009.93
2017-01-29T05:20:09.618Z,1009.91
2017-01-29T05:21:09.597Z,1009.91
2017-01-29T05:22:09.577Z,1009.95
2017-01-29T05:23:09.559Z,1009.89
2017-01-29T05:24:09.538Z,1009.89
2017-01-29T05:25:09.519Z,1009.89
2017-01-29T05:26:09.501Z,1009.9
2017-01-29T05:27:09.482Z,1009.96
2017-01-29T05:28:09.462Z,1009.97
2017-01-29T05:29:09.442Z,1009.96
2017-01-29T05:30:09.424Z,1010.01
2017-01-29T05:31:09.403Z,1010.01
2017-01-29T05:32:09.387Z,1009.99
2017-01-29T05:33:09.365Z,1009.99
2017-01-29T05:34:09.348Z,1009.99
2017-01-29T05:35:09.324Z,1009.99
2017-01-29T05:36:09.306Z,1009.96
2017-01-29T05:37:09.287Z,1009.94
2017-01-29T05:38:09.268Z,1009.96
2017-01-29T05:39:09.246Z,1009.98
2017-01-29T05:40:09.227Z,1009.96
2017-01-29T05:41:09.207Z,1009.96
2017-01-29T05:42:09.195Z,1009.97
2017-01-29T05:43:09.173Z,1009.96
2017-01-29T05:44:09.149Z,1009.94
2017-01-29T05:45:09.131Z,1009.97
2017-01-29T05:46:09.109Z,1009.95
2017-01-29T05:47:09.092Z,1009.97
2017-01-29T05:48:09.071Z,1009.96
2017-01-29T05:49:09.052Z,1009.98
2017-01-29T05:50:09.032Z,1010.03
2017-01-29T05:51:09.011Z,1010.04
2017-01-29T05:52:08.994Z,1010.07
2017-01-29T05:53:08.975Z,1010.08
2017-01-29T05:54:08.953Z,1010.06
2017-01-29T05:55:08.933Z,1010.1
2017-01-29T05:56:08.916Z,1010.07
2017-01-29T05:57:08.894Z,1010.09
2017-01-29T05:58:08.874Z,1010.06
2017-01-29T05:59:08.855Z,1010.06
2017-01-29T06:00:08.837Z,1010.08
2017-01-29T06:01:08.822Z,1010.07
2017-01-29T06:02:08.997Z,1010.06
2017-01-29T06:03:08.775Z,1010.11
2017-01-29T06:04:08.779Z,1010.1
2017-01-29T06:05:08.737Z,1010.12
2017-01-29T06:06:08.717Z,1010.15
2017-01-29T06:07:08.697Z,1010.14
2017-01-29T06:08:08.678Z,1010.19
2017-01-29T06:09:08.656Z,1010.14
2017-01-29T06:10:08.636Z,1010.17
2017-01-29T06:11:08.616Z,1010.2
2017-01-29T06:12:08.598Z,1010.17
2017-01-29T06:13:08.575Z,1010.2
2017-01-29T06:14:08.556Z,1010.21
2017-01-29T06:15:08.537Z,1010.19
2017-01-29T06:16:08.516Z,1010.23
2017-01-29T06:17:08.498Z,1010.22
2017-01-29T06:18:08.478Z,1010.18
2017-01-29T06:19:08.456Z,1010.25
2017-01-29T06:20:08.437Z,1010.24
2017-01-29T06:21:08.415Z,1010.22
2017-01-29T06:22:08.398Z,1010.21
2017-01-29T06:23:08.376Z,1010.21
2017-01-29T06:24:08.356Z,1010.19
2017-01-29T06:25:08.337Z,1010.15
2017-01-29T06:26:08.317Z,1010.16
2017-01-29T06:27:08.299Z,1010.19
2017-01-29T06:28:08.275Z,1010.16
2017-01-29T06:29:08.256Z,1010.18
2017-01-29T06:30:08.236Z,1010.23
2017-01-29T06:31:08.219Z,1010.2
2017-01-29T06:32:08.196Z,1010.22
2017-01-29T06:33:08.174Z,1010.17
2017-01-29T06:34:08.154Z,1010.18
2017-01-29T06:35:08.134Z,1010.16
2017-01-29T06:36:08.119Z,1010.14
2017-01-29T06:37:08.096Z,1010.15
2017-01-29T06:38:08.079Z,1010.14
2017-01-29T06:39:08.054Z,1010.14
2017-01-29T06:40:08.033Z,1010.19
2017-01-29T06:41:08.014Z,1010.18
2017-01-29T06:42:07.995Z,1010.17
2017-01-29T06:43:07.977Z,1010.15
2017-01-29T06:44:07.956Z,1010.13
2017-01-29T06:45:07.932Z,1010.17
2017-01-29T06:46:07.915Z,1010.17
2017-01-29T06:47:07.897Z,1010.16
2017-01-29T06:48:07.871Z,1010.09
2017-01-29T06:49:07.851Z,1010.12
2017-01-29T06:50:07.833Z,1010.18
2017-01-29T06:51:07.812Z,1010.21
2017-01-29T06:52:07.792Z,1010.23
2017-01-29T06:53:07.771Z,1010.23
2017-01-29T06:54:07.750Z,1010.25
2017-01-29T06:55:07.733Z,1010.24
2017-01-29T06:56:07.711Z,1010.23
2017-01-29T06:57:07.692Z,1010.18
2017-01-29T06:58:07.671Z,1010.18
2017-01-29T06:59:07.650Z,1010.21
2017-01-29T07:00:07.630Z,1010.23
2017-01-29T07:01:07.611Z,1010.2
2017-01-29T07:02:07.591Z,1010.23
2017-01-29T07:03:07.570Z,1010.22
2017-01-29T07:04:07.548Z,1010.2
2017-01-29T07:05:07.529Z,1010.19
2017-01-29T07:06:07.510Z,1010.16
2017-01-29T07:07:07.490Z,1010.14
2017-01-29T07:08:07.468Z,1010.13
2017-01-29T07:09:07.453Z,1010.1
2017-01-29T07:10:07.480Z,1010.11
2017-01-29T07:11:07.411Z,1010.07
2017-01-29T07:12:07.393Z,1010.11
2017-01-29T07:13:07.393Z,1010.09
2017-01-29T07:14:07.349Z,1010.1
2017-01-29T07:15:07.329Z,1010.06
2017-01-29T07:16:07.309Z,1010.08
2017-01-29T07:17:07.286Z,1010.07
2017-01-29T07:18:07.271Z,1010.08
2017-01-29T07:19:07.249Z,1010.11
2017-01-29T07:20:07.231Z,1010.17
2017-01-29T07:21:07.210Z,1010.19
2017-01-29T07:22:07.188Z,1010.19
2017-01-29T07:23:07.167Z,1010.14
2017-01-29T07:24:07.149Z,1010.15
2017-01-29T07:25:07.129Z,1010.16
2017-01-29T07:26:07.110Z,1010.19
2017-01-29T07:27:07.088Z,1010.18
2017-01-29T07:28:07.071Z,1010.17
2017-01-29T07:29:07.048Z,1010.2
2017-01-29T07:30:07.032Z,1010.15
2017-01-29T07:31:07.007Z,1010.17
2017-01-29T07:32:06.991Z,1010.23
2017-01-29T07:33:06.972Z,1010.16
2017-01-29T07:34:06.952Z,1010.19
2017-01-29T07:35:06.930Z,1010.17
2017-01-29T07:36:06.909Z,1010.19
2017-01-29T07:37:06.892Z,1010.14
2017-01-29T07:38:06.872Z,1010.15
2017-01-29T07:39:06.849Z,1010.16
2017-01-29T07:40:06.884Z,1010.2
2017-01-29T07:41:06.810Z,1010.14
2017-01-29T07:42:06.792Z,1010.18
2017-01-29T07:43:06.770Z,1010.19
2017-01-29T07:44:06.751Z,1010.16
2017-01-29T07:45:06.732Z,1010.2
2017-01-29T07:46:06.712Z,1010.23
2017-01-29T07:47:06.721Z,1010.23
2017-01-29T07:48:06.684Z,1010.18
2017-01-29T07:49:06.656Z,1010.11
2017-01-29T07:50:06.637Z,1010.09
2017-01-29T07:51:06.616Z,1010.07
2017-01-29T07:52:06.594Z,1010
2017-01-29T07:53:06.576Z,1010.03
2017-01-29T07:54:06.556Z,1010.12
2017-01-29T07:55:06.561Z,1010.07
2017-01-29T07:56:06.519Z,1010.12
2017-01-29T07:57:06.497Z,1010.04
2017-01-29T07:58:06.478Z,1010.07
2017-01-29T07:59:06.459Z,1010.04
2017-01-29T08:00:06.440Z,1010.09
2017-01-29T08:01:06.418Z,1010.07
2017-01-29T08:02:06.400Z,1010.02
2017-01-29T08:03:06.380Z,1010.01
2017-01-29T08:04:06.359Z,1010.05
2017-01-29T08:05:06.344Z,1010.06
2017-01-29T08:06:06.319Z,1010.09
2017-01-29T08:07:06.300Z,1010.06
2017-01-29T08:08:06.281Z,1010.09
2017-01-29T08:09:06.264Z,1010.09
2017-01-29T08:10:06.241Z,1010.08
2017-01-29T08:11:06.223Z,1010.14
2017-01-29T08:12:06.203Z,1010.09
2017-01-29T08:13:06.189Z,1010.1
2017-01-29T08:14:06.165Z,1010.08
2017-01-29T08:15:06.142Z,1010.14
2017-01-29T08:16:06.125Z,1010.09
2017-01-29T08:17:06.107Z,1010.07
2017-01-29T08:18:06.087Z,1010.03
2017-01-29T08:19:06.065Z,1010.01
2017-01-29T08:20:06.049Z,1010
2017-01-29T08:21:06.026Z,1010.02
2017-01-29T08:22:06.006Z,1010.02
2017-01-29T08:23:05.988Z,1010.02
2017-01-29T08:24:05.967Z,1010.05
2017-01-29T08:25:05.951Z,1010.02
2017-01-29T08:26:05.927Z,1010.04
2017-01-29T08:27:05.910Z,1010.1
2017-01-29T08:28:05.889Z,1010.07
2017-01-29T08:29:05.868Z,1010.07
2017-01-29T08:30:05.854Z,1010.11
2017-01-29T08:31:05.832Z,1010.16
2017-01-29T08:32:05.811Z,1010.17
2017-01-29T08:33:05.793Z,1010.24
2017-01-29T08:34:05.771Z,1010.32
2017-01-29T08:35:05.750Z,1010.36
2017-01-29T08:36:05.731Z,1010.39
2017-01-29T08:37:05.713Z,1010.44
2017-01-29T08:38:05.692Z,1010.47
2017-01-29T08:39:05.672Z,1010.51
2017-01-29T08:40:05.652Z,1010.49
2017-01-29T08:41:05.633Z,1010.47
2017-01-29T08:42:05.625Z,1010.47
2017-01-29T08:43:05.593Z,1010.5
2017-01-29T08:44:05.575Z,1010.58
2017-01-29T08:45:05.555Z,1010.54
2017-01-29T08:46:05.534Z,1010.54
2017-01-29T08:47:05.514Z,1010.51
2017-01-29T08:48:05.498Z,1010.5
2017-01-29T08:49:05.476Z,1010.49
2017-01-29T08:50:05.456Z,1010.51
2017-01-29T08:51:05.437Z,1010.48
2017-01-29T08:52:05.418Z,1010.5
2017-01-29T08:53:05.398Z,1010.45
2017-01-29T08:54:05.386Z,1010.45
2017-01-29T08:55:05.365Z,1010.52
2017-01-29T08:56:05.339Z,1010.47
2017-01-29T08:57:05.322Z,1010.45
2017-01-29T08:58:05.301Z,1010.42
2017-01-29T08:59:05.283Z,1010.43
2017-01-29T09:00:05.264Z,1010.47
2017-01-29T09:01:05.246Z,1010.41
2017-01-29T09:02:05.226Z,1010.32
2017-01-29T09:03:05.206Z,1010.26
2017-01-29T09:04:05.194Z,1010.33
2017-01-29T09:05:05.172Z,1010.35
2017-01-29T09:06:05.149Z,1010.41
2017-01-29T09:07:05.131Z,1010.37
2017-01-29T09:08:05.116Z,1010.39
2017-01-29T09:09:05.090Z,1010.39
2017-01-29T09:10:05.070Z,1010.44
2017-01-29T09:11:05.050Z,1010.47
2017-01-29T09:12:05.038Z,1010.43
2017-01-29T09:13:05.020Z,1010.42
2017-01-29T09:14:04.996Z,1010.43
2017-01-29T09:15:04.973Z,1010.48
2017-01-29T09:16:04.956Z,1010.44
2017-01-29T09:17:04.941Z,1010.47
2017-01-29T09:18:04.919Z,1010.44
2017-01-29T09:19:04.897Z,1010.44
2017-01-29T09:20:04.878Z,1010.43
2017-01-29T09:21:04.860Z,1010.46
2017-01-29T09:22:04.838Z,1010.5
2017-01-29T09:23:04.825Z,1010.52
2017-01-29T09:24:04.803Z,1010.51
2017-01-29T09:25:04.787Z,1010.56
2017-01-29T09:26:04.764Z,1010.51
2017-01-29T09:27:04.749Z,1010.48
2017-01-29T09:28:04.730Z,1010.46
2017-01-29T09:29:04.707Z,1010.52
2017-01-29T09:30:04.690Z,1010.45
2017-01-29T09:31:04.672Z,1010.51
2017-01-29T09:32:04.654Z,1010.47
2017-01-29T09:33:04.633Z,1010.48
2017-01-29T09:34:04.613Z,1010.45
2017-01-29T09:35:04.594Z,1010.48
2017-01-29T09:36:04.574Z,1010.5
2017-01-29T09:37:04.557Z,1010.53
2017-01-29T09:38:04.539Z,1010.52
2017-01-29T09:39:04.518Z,1010.47
2017-01-29T09:40:04.502Z,1010.47
2017-01-29T09:41:04.484Z,1010.46
2017-01-29T09:42:04.464Z,1010.43
2017-01-29T09:43:04.447Z,1010.43
2017-01-29T09:44:04.422Z,1010.48
2017-01-29T09:45:04.405Z,1010.4
2017-01-29T09:46:04.386Z,1010.46
2017-01-29T09:47:04.393Z,1010.41
2017-01-29T09:48:04.348Z,1010.45
2017-01-29T09:49:04.329Z,1010.43
2017-01-29T09:50:04.312Z,1010.43
2017-01-29T09:51:04.292Z,1010.39
2017-01-29T09:52:04.280Z,1010.43
2017-01-29T09:53:04.254Z,1010.36
2017-01-29T09:54:04.234Z,1010.32
2017-01-29T09:55:04.217Z,1010.42
2017-01-29T09:56:04.386Z,1010.41
2017-01-29T09:57:04.186Z,1010.43
2017-01-29T09:58:04.163Z,1010.48
2017-01-29T09:59:04.144Z,1010.44
2017-01-29T10:00:04.132Z,1010.43
2017-01-29T10:01:04.113Z,1010.43
2017-01-29T10:02:04.094Z,1010.41
2017-01-29T10:03:04.271Z,1010.42
2017-01-29T10:04:04.054Z,1010.45
2017-01-29T10:05:04.040Z,1010.46
2017-01-29T10:06:04.017Z,1010.49
2017-01-29T10:07:03.996Z,1010.51
2017-01-29T10:08:03.977Z,1010.5
2017-01-29T10:09:03.961Z,1010.49
2017-01-29T10:10:03.942Z,1010.48
2017-01-29T10:11:03.927Z,1010.48
2017-01-29T10:12:03.907Z,1010.52
2017-01-29T10:13:03.899Z,1010.48
2017-01-29T10:14:03.868Z,1010.45
2017-01-29T10:15:03.851Z,1010.53
2017-01-29T10:16:03.833Z,1010.45
2017-01-29T10:17:03.816Z,1010.49
2017-01-29T10:18:03.796Z,1010.41
2017-01-29T10:19:03.778Z,1010.42
2017-01-29T10:20:03.759Z,1010.42
2017-01-29T10:21:03.742Z,1010.4
2017-01-29T10:22:03.723Z,1010.37
2017-01-29T10:23:03.707Z,1010.36
2017-01-29T10:24:03.715Z,1010.32
2017-01-29T10:25:03.694Z,1010.34
2017-01-29T10:26:03.651Z,1010.27
2017-01-29T10:27:03.631Z,1010.31
2017-01-29T10:28:03.613Z,1010.34
2017-01-29T10:29:03.595Z,1010.3
2017-01-29T10:30:03.577Z,1010.3
2017-01-29T10:31:03.559Z,1010.36
2017-01-29T10:32:03.541Z,1010.35
2017-01-29T10:33:03.524Z,1010.34
2017-01-29T10:34:03.506Z,1010.31
2017-01-29T10:35:03.487Z,1010.33
2017-01-29T10:36:03.469Z,1010.35
2017-01-29T10:37:03.452Z,1010.41
2017-01-29T10:38:03.432Z,1010.48
2017-01-29T10:39:03.415Z,1010.41
2017-01-29T10:40:03.399Z,1010.32
2017-01-29T10:41:03.380Z,1010.37
2017-01-29T10:42:03.364Z,1010.4
2017-01-29T10:43:03.346Z,1010.36
2017-01-29T10:44:03.329Z,1010.39
2017-01-29T10:45:03.313Z,1010.37
2017-01-29T10:46:03.308Z,1010.32
2017-01-29T10:47:03.277Z,1010.33
2017-01-29T10:48:03.264Z,1010.34
2017-01-29T10:49:03.245Z,1010.27
2017-01-29T10:50:03.229Z,1010.35
2017-01-29T10:51:03.210Z,1010.29
2017-01-29T10:52:03.192Z,1010.28
2017-01-29T10:53:03.175Z,1010.36
2017-01-29T10:54:03.161Z,1010.31
2017-01-29T10:55:03.153Z,1010.34
2017-01-29T10:56:03.132Z,1010.42
2017-01-29T10:57:03.111Z,1010.39
2017-01-29T10:58:03.092Z,1010.35
2017-01-29T10:59:03.072Z,1010.32
2017-01-29T11:00:03.056Z,1010.33
2017-01-29T11:01:03.042Z,1010.35
2017-01-29T11:02:03.022Z,1010.38
2017-01-29T11:03:03.007Z,1010.36
2017-01-29T11:04:02.988Z,1010.37
2017-01-29T11:05:02.970Z,1010.37
2017-01-29T11:06:02.954Z,1010.4
2017-01-29T11:07:02.937Z,1010.41
2017-01-29T11:08:02.921Z,1010.34
2017-01-29T11:09:02.902Z,1010.36
2017-01-29T11:10:02.885Z,1010.38
2017-01-29T11:11:02.870Z,1010.39
2017-01-29T11:12:02.855Z,1010.39
2017-01-29T11:13:02.839Z,1010.37
2017-01-29T11:14:02.821Z,1010.33
2017-01-29T11:15:02.801Z,1010.31
2017-01-29T11:16:02.786Z,1010.3
2017-01-29T11:17:02.767Z,1010.31
2017-01-29T11:18:02.751Z,1010.43
2017-01-29T11:19:02.733Z,1010.42
2017-01-29T11:20:02.718Z,1010.42
2017-01-29T11:21:02.699Z,1010.45
2017-01-29T11:22:02.682Z,1010.43
2017-01-29T11:23:02.667Z,1010.38
2017-01-29T11:24:02.648Z,1010.48
2017-01-29T11:25:02.631Z,1010.43
2017-01-29T11:26:02.614Z,1010.42
2017-01-29T11:27:02.601Z,1010.44
2017-01-29T11:28:02.581Z,1010.35
2017-01-29T11:29:02.564Z,1010.41
2017-01-29T11:30:02.548Z,1010.44
2017-01-29T11:31:02.529Z,1010.42
2017-01-29T11:32:02.518Z,1010.37
2017-01-29T11:33:02.500Z,1010.36
2017-01-29T11:34:02.488Z,1010.36
2017-01-29T11:35:02.462Z,1010.42
2017-01-29T11:36:02.444Z,1010.43
2017-01-29T11:37:02.424Z,1010.47
2017-01-29T11:38:02.408Z,1010.38
2017-01-29T11:39:02.390Z,1010.37
2017-01-29T11:40:02.375Z,1010.4
2017-01-29T11:41:02.355Z,1010.31
2017-01-29T11:42:02.341Z,1010.34
2017-01-29T11:43:02.321Z,1010.3
2017-01-29T11:44:02.302Z,1010.34
2017-01-29T11:45:02.285Z,1010.41
2017-01-29T11:46:02.269Z,1010.34
2017-01-29T11:47:02.251Z,1010.33
2017-01-29T11:48:02.232Z,1010.34
2017-01-29T11:49:02.217Z,1010.32
2017-01-29T11:50:02.200Z,1010.31
2017-01-29T11:51:02.181Z,1010.32
2017-01-29T11:52:02.163Z,1010.33
2017-01-29T11:53:02.148Z,1010.32
2017-01-29T11:54:02.130Z,1010.26
2017-01-29T11:55:02.113Z,1010.27
2017-01-29T11:56:02.094Z,1010.28
2017-01-29T11:57:02.078Z,1010.29
2017-01-29T11:58:02.062Z,1010.29
2017-01-29T11:59:02.042Z,1010.3
2017-01-29T12:00:02.028Z,1010.28
2017-01-29T12:01:02.011Z,1010.29
2017-01-29T12:02:01.994Z,1010.31
2017-01-29T12:03:02.178Z,1010.24
2017-01-29T12:04:01.960Z,1010.24
2017-01-29T12:05:01.945Z,1010.29
2017-01-29T12:06:01.929Z,1010.25
2017-01-29T12:07:01.907Z,1010.27
2017-01-29T12:08:01.893Z,1010.25
2017-01-29T12:09:01.872Z,1010.29